sensor_id;sensor_type;location;lat;lon;timestamp;temperature;humidity
20141;DHT22;10231;47.702;9.826;2022-07-29T00:02:25;18.10;99.90
20141;DHT22;10231;47.702;9.826;2022-07-29T00:04:51;18.20;99.90
20141;DHT22;10231;47.702;9.826;2022-07-29T00:07:16;18.20;99.90
20141;DHT22;10231;47.702;9.826;2022-07-29T00:09:42;18.20;99.90
20141;DHT22;10231;47.702;9.826;2022-07-29T00:12:08;18.00;99.90
20141;DHT22;10231;47.702;9.826;2022-07-29T00:14:33;18.10;99.90
20141;DHT22;10231;47.702;9.826;2022-07-29T00:16:59;18.00;99.90
20141;DHT22;10231;47.702;9.826;2022-07-29T00:19:25;18.10;99.90
20141;DHT22;10231;47.702;9.826;2022-07-29T00:21:50;18.10;99.90
20141;DHT22;10231;47.702;9.826;2022-07-29T00:24:16;18.20;99.90
20141;DHT22;10231;47.702;9.826;2022-07-29T00:26:41;18.20;99.90
20141;DHT22;10231;47.702;9.826;2022-07-29T00:29:07;18.00;99.90
20141;DHT22;10231;47.702;9.826;2022-07-29T00:31:33;17.90;99.90
20141;DHT22;10231;47.702;9.826;2022-07-29T00:33:58;17.90;99.90
20141;DHT22;10231;47.702;9.826;2022-07-29T00:36:24;17.90;99.90
20141;DHT22;10231;47.702;9.826;2022-07-29T00:38:50;17.90;99.90
20141;DHT22;10231;47.702;9.826;2022-07-29T00:41:17;17.80;99.90
20141;DHT22;10231;47.702;9.826;2022-07-29T00:43:44;17.80;99.90
20141;DHT22;10231;47.702;9.826;2022-07-29T00:46:10;17.90;99.90
20141;DHT22;10231;47.702;9.826;2022-07-29T00:48:36;17.90;99.90
20141;DHT22;10231;47.702;9.826;2022-07-29T00:51:03;17.90;99.90
20141;DHT22;10231;47.702;9.826;2022-07-29T00:53:30;17.90;99.90
20141;DHT22;10231;47.702;9.826;2022-07-29T00:55:56;17.80;99.90
20141;DHT22;10231;47.702;9.826;2022-07-29T00:58:22;17.90;99.90
20141;DHT22;10231;47.702;9.826;2022-07-29T01:00:49;17.90;99.90
20141;DHT22;10231;47.702;9.826;2022-07-29T01:03:15;17.90;99.90
20141;DHT22;10231;47.702;9.826;2022-07-29T01:05:41;17.80;99.90
20141;DHT22;10231;47.702;9.826;2022-07-29T01:08:08;17.80;99.90
20141;DHT22;10231;47.702;9.826;2022-07-29T01:10:36;17.90;99.90
20141;DHT22;10231;47.702;9.826;2022-07-29T01:13:02;17.90;99.90
20141;DHT22;10231;47.702;9.826;2022-07-29T01:15:29;17.70;99.90
20141;DHT22;10231;47.702;9.826;2022-07-29T01:18:01;17.70;99.90
20141;DHT22;10231;47.702;9.826;2022-07-29T01:20:46;17.70;99.90
20141;DHT22;10231;47.702;9.826;2022-07-29T01:31:00;17.70;99.90
20141;DHT22;10231;47.702;9.826;2022-07-29T01:33:29;17.80;99.90
20141;DHT22;10231;47.702;9.826;2022-07-29T01:36:23;17.80;99.90
20141;DHT22;10231;47.702;9.826;2022-07-29T01:39:19;17.80;99.90
20141;DHT22;10231;47.702;9.826;2022-07-29T01:42:01;17.70;99.90
20141;DHT22;10231;47.702;9.826;2022-07-29T01:44:38;17.70;99.90
20141;DHT22;10231;47.702;9.826;2022-07-29T01:47:14;17.70;99.90
20141;DHT22;10231;47.702;9.826;2022-07-29T01:49:56;17.70;99.90
20141;DHT22;10231;47.702;9.826;2022-07-29T01:52:43;17.60;99.90
20141;DHT22;10231;47.702;9.826;2022-07-29T01:55:13;17.50;99.90
20141;DHT22;10231;47.702;9.826;2022-07-29T01:57:42;17.50;99.90
20141;DHT22;10231;47.702;9.826;2022-07-29T02:00:09;17.40;99.90
20141;DHT22;10231;47.702;9.826;2022-07-29T02:02:38;17.40;99.90
20141;DHT22;10231;47.702;9.826;2022-07-29T02:05:11;17.20;99.90
20141;DHT22;10231;47.702;9.826;2022-07-29T02:07:40;17.30;99.90
20141;DHT22;10231;47.702;9.826;2022-07-29T02:10:07;17.20;99.90
20141;DHT22;10231;47.702;9.826;2022-07-29T02:12:35;17.10;99.90
20141;DHT22;10231;47.702;9.826;2022-07-29T02:15:03;17.10;99.90
20141;DHT22;10231;47.702;9.826;2022-07-29T02:17:35;17.10;99.90
20141;DHT22;10231;47.702;9.826;2022-07-29T02:20:04;17.10;99.90
20141;DHT22;10231;47.702;9.826;2022-07-29T02:22:31;17.00;99.90
20141;DHT22;10231;47.702;9.826;2022-07-29T02:24:59;17.00;99.90
20141;DHT22;10231;47.702;9.826;2022-07-29T02:27:26;17.00;99.90
20141;DHT22;10231;47.702;9.826;2022-07-29T02:29:53;17.10;99.90
20141;DHT22;10231;47.702;9.826;2022-07-29T02:32:21;17.10;99.90
20141;DHT22;10231;47.702;9.826;2022-07-29T02:34:48;17.00;99.90
20141;DHT22;10231;47.702;9.826;2022-07-29T02:37:15;17.00;99.90
20141;DHT22;10231;47.702;9.826;2022-07-29T02:39:44;17.00;99.90
20141;DHT22;10231;47.702;9.826;2022-07-29T02:42:12;16.90;99.90
20141;DHT22;10231;47.702;9.826;2022-07-29T02:44:39;16.90;99.90
20141;DHT22;10231;47.702;9.826;2022-07-29T02:47:28;16.80;99.90
20141;DHT22;10231;47.702;9.826;2022-07-29T02:50:15;16.80;99.90
20141;DHT22;10231;47.702;9.826;2022-07-29T02:53:00;16.90;99.90
20141;DHT22;10231;47.702;9.826;2022-07-29T02:55:34;16.90;99.90
20141;DHT22;10231;47.702;9.826;2022-07-29T03:00:39;16.80;99.90
20141;DHT22;10231;47.702;9.826;2022-07-29T03:03:09;16.80;99.90
20141;DHT22;10231;47.702;9.826;2022-07-29T03:05:36;16.80;99.90
20141;DHT22;10231;47.702;9.826;2022-07-29T03:08:04;16.80;99.90
20141;DHT22;10231;47.702;9.826;2022-07-29T03:10:31;16.70;99.90
20141;DHT22;10231;47.702;9.826;2022-07-29T03:12:58;16.70;99.90
20141;DHT22;10231;47.702;9.826;2022-07-29T03:15:24;16.70;99.90
20141;DHT22;10231;47.702;9.826;2022-07-29T03:17:51;16.70;99.90
20141;DHT22;10231;47.702;9.826;2022-07-29T03:20:18;16.80;99.90
20141;DHT22;10231;47.702;9.826;2022-07-29T03:22:44;16.70;99.90
20141;DHT22;10231;47.702;9.826;2022-07-29T03:25:14;16.70;99.90
20141;DHT22;10231;47.702;9.826;2022-07-29T03:27:40;16.60;99.90
20141;DHT22;10231;47.702;9.826;2022-07-29T03:30:07;16.70;99.90
20141;DHT22;10231;47.702;9.826;2022-07-29T03:32:33;16.60;99.90
20141;DHT22;10231;47.702;9.826;2022-07-29T03:35:00;16.50;99.90
20141;DHT22;10231;47.702;9.826;2022-07-29T03:37:25;16.40;99.90
20141;DHT22;10231;47.702;9.826;2022-07-29T03:39:52;16.40;99.90
20141;DHT22;10231;47.702;9.826;2022-07-29T03:42:21;16.30;99.90
20141;DHT22;10231;47.702;9.826;2022-07-29T03:44:50;16.30;99.90
20141;DHT22;10231;47.702;9.826;2022-07-29T03:47:19;16.40;99.90
20141;DHT22;10231;47.702;9.826;2022-07-29T03:49:48;16.40;99.90
20141;DHT22;10231;47.702;9.826;2022-07-29T03:52:15;16.50;99.90
20141;DHT22;10231;47.702;9.826;2022-07-29T03:54:40;16.50;99.90
20141;DHT22;10231;47.702;9.826;2022-07-29T03:57:07;16.60;99.90
20141;DHT22;10231;47.702;9.826;2022-07-29T03:59:33;16.60;99.90
20141;DHT22;10231;47.702;9.826;2022-07-29T04:02:00;16.60;99.90
20141;DHT22;10231;47.702;9.826;2022-07-29T04:04:27;16.60;99.90
20141;DHT22;10231;47.702;9.826;2022-07-29T04:06:53;16.70;99.90
20141;DHT22;10231;47.702;9.826;2022-07-29T04:09:18;16.60;99.90
20141;DHT22;10231;47.702;9.826;2022-07-29T04:11:45;16.70;99.90
20141;DHT22;10231;47.702;9.826;2022-07-29T04:14:11;16.70;99.90
20141;DHT22;10231;47.702;9.826;2022-07-29T04:16:36;16.70;99.90
20141;DHT22;10231;47.702;9.826;2022-07-29T04:19:02;16.80;99.90
20141;DHT22;10231;47.702;9.826;2022-07-29T04:21:27;16.80;99.90
20141;DHT22;10231;47.702;9.826;2022-07-29T04:23:53;16.80;99.90
20141;DHT22;10231;47.702;9.826;2022-07-29T04:26:19;16.90;99.90
20141;DHT22;10231;47.702;9.826;2022-07-29T04:28:46;16.90;99.90
20141;DHT22;10231;47.702;9.826;2022-07-29T04:31:12;16.90;99.90
20141;DHT22;10231;47.702;9.826;2022-07-29T04:33:39;17.00;99.90
20141;DHT22;10231;47.702;9.826;2022-07-29T04:36:05;17.10;99.90
20141;DHT22;10231;47.702;9.826;2022-07-29T04:38:31;17.10;99.90
20141;DHT22;10231;47.702;9.826;2022-07-29T04:40:56;17.20;99.90
20141;DHT22;10231;47.702;9.826;2022-07-29T04:43:22;17.20;99.90
20141;DHT22;10231;47.702;9.826;2022-07-29T04:45:48;17.20;99.90
20141;DHT22;10231;47.702;9.826;2022-07-29T04:48:13;17.30;99.90
20141;DHT22;10231;47.702;9.826;2022-07-29T04:50:39;17.40;99.90
20141;DHT22;10231;47.702;9.826;2022-07-29T04:53:06;17.40;99.90
20141;DHT22;10231;47.702;9.826;2022-07-29T04:55:32;17.50;99.90
20141;DHT22;10231;47.702;9.826;2022-07-29T04:57:58;17.60;99.90
20141;DHT22;10231;47.702;9.826;2022-07-29T05:00:24;17.60;99.90
20141;DHT22;10231;47.702;9.826;2022-07-29T05:02:49;17.70;99.90
20141;DHT22;10231;47.702;9.826;2022-07-29T05:05:15;17.70;99.90
20141;DHT22;10231;47.702;9.826;2022-07-29T05:07:41;17.70;99.90
20141;DHT22;10231;47.702;9.826;2022-07-29T05:10:07;17.70;99.90
20141;DHT22;10231;47.702;9.826;2022-07-29T05:12:33;17.80;99.90
20141;DHT22;10231;47.702;9.826;2022-07-29T05:14:59;17.80;99.90
20141;DHT22;10231;47.702;9.826;2022-07-29T05:17:24;17.80;99.90
20141;DHT22;10231;47.702;9.826;2022-07-29T05:19:50;17.80;99.90
20141;DHT22;10231;47.702;9.826;2022-07-29T05:22:20;17.90;99.90
20141;DHT22;10231;47.702;9.826;2022-07-29T05:24:45;18.00;99.90
20141;DHT22;10231;47.702;9.826;2022-07-29T05:27:11;18.00;99.90
20141;DHT22;10231;47.702;9.826;2022-07-29T05:29:37;18.00;99.90
20141;DHT22;10231;47.702;9.826;2022-07-29T05:32:03;18.00;99.90
20141;DHT22;10231;47.702;9.826;2022-07-29T05:34:29;18.10;99.90
20141;DHT22;10231;47.702;9.826;2022-07-29T05:36:55;18.10;99.90
20141;DHT22;10231;47.702;9.826;2022-07-29T05:39:22;18.00;99.90
20141;DHT22;10231;47.702;9.826;2022-07-29T05:41:47;18.00;99.90
20141;DHT22;10231;47.702;9.826;2022-07-29T05:44:13;18.00;99.90
20141;DHT22;10231;47.702;9.826;2022-07-29T05:46:39;18.10;99.90
20141;DHT22;10231;47.702;9.826;2022-07-29T05:49:04;18.00;99.90
20141;DHT22;10231;47.702;9.826;2022-07-29T05:51:32;18.10;99.90
20141;DHT22;10231;47.702;9.826;2022-07-29T05:53:58;18.10;99.90
20141;DHT22;10231;47.702;9.826;2022-07-29T05:56:24;18.10;99.90
20141;DHT22;10231;47.702;9.826;2022-07-29T05:58:50;18.20;99.90
20141;DHT22;10231;47.702;9.826;2022-07-29T06:01:16;18.30;99.90
20141;DHT22;10231;47.702;9.826;2022-07-29T06:03:41;18.40;99.90
20141;DHT22;10231;47.702;9.826;2022-07-29T06:06:10;18.30;99.90
20141;DHT22;10231;47.702;9.826;2022-07-29T06:08:36;18.30;99.90
20141;DHT22;10231;47.702;9.826;2022-07-29T06:11:02;18.50;99.90
20141;DHT22;10231;47.702;9.826;2022-07-29T06:13:29;18.40;99.90
20141;DHT22;10231;47.702;9.826;2022-07-29T06:15:55;18.40;99.90
20141;DHT22;10231;47.702;9.826;2022-07-29T06:18:20;18.40;99.90
20141;DHT22;10231;47.702;9.826;2022-07-29T06:20:52;18.40;99.90
20141;DHT22;10231;47.702;9.826;2022-07-29T06:23:18;18.40;99.90
20141;DHT22;10231;47.702;9.826;2022-07-29T06:25:44;18.40;99.90
20141;DHT22;10231;47.702;9.826;2022-07-29T06:28:11;18.40;99.90
20141;DHT22;10231;47.702;9.826;2022-07-29T06:30:37;18.50;99.90
20141;DHT22;10231;47.702;9.826;2022-07-29T06:33:02;18.40;99.90
20141;DHT22;10231;47.702;9.826;2022-07-29T06:35:28;18.40;99.90
20141;DHT22;10231;47.702;9.826;2022-07-29T06:37:54;18.40;99.90
20141;DHT22;10231;47.702;9.826;2022-07-29T06:40:20;18.40;99.90
20141;DHT22;10231;47.702;9.826;2022-07-29T06:43:04;18.40;99.90
20141;DHT22;10231;47.702;9.826;2022-07-29T06:45:33;18.50;99.90
20141;DHT22;10231;47.702;9.826;2022-07-29T06:47:59;18.60;99.90
20141;DHT22;10231;47.702;9.826;2022-07-29T06:50:24;18.70;99.90
20141;DHT22;10231;47.702;9.826;2022-07-29T06:52:50;18.60;99.90
20141;DHT22;10231;47.702;9.826;2022-07-29T06:55:16;18.60;99.90
20141;DHT22;10231;47.702;9.826;2022-07-29T06:57:41;18.70;99.90
20141;DHT22;10231;47.702;9.826;2022-07-29T07:00:07;18.70;99.90
20141;DHT22;10231;47.702;9.826;2022-07-29T07:02:33;18.70;99.90
20141;DHT22;10231;47.702;9.826;2022-07-29T07:04:59;18.70;99.90
20141;DHT22;10231;47.702;9.826;2022-07-29T07:07:25;18.80;99.90
20141;DHT22;10231;47.702;9.826;2022-07-29T07:09:50;18.80;99.90
20141;DHT22;10231;47.702;9.826;2022-07-29T07:12:16;18.80;99.90
20141;DHT22;10231;47.702;9.826;2022-07-29T07:14:41;18.80;99.90
20141;DHT22;10231;47.702;9.826;2022-07-29T07:17:07;18.90;99.90
20141;DHT22;10231;47.702;9.826;2022-07-29T07:19:33;18.90;99.90
20141;DHT22;10231;47.702;9.826;2022-07-29T07:21:59;19.00;99.90
20141;DHT22;10231;47.702;9.826;2022-07-29T07:24:24;19.10;99.90
20141;DHT22;10231;47.702;9.826;2022-07-29T07:26:50;19.20;99.90
20141;DHT22;10231;47.702;9.826;2022-07-29T07:29:16;19.20;99.90
20141;DHT22;10231;47.702;9.826;2022-07-29T07:31:42;19.30;99.90
20141;DHT22;10231;47.702;9.826;2022-07-29T07:34:08;19.30;99.90
20141;DHT22;10231;47.702;9.826;2022-07-29T07:36:33;19.30;99.90
20141;DHT22;10231;47.702;9.826;2022-07-29T07:38:59;19.40;99.90
20141;DHT22;10231;47.702;9.826;2022-07-29T07:41:25;19.50;99.90
20141;DHT22;10231;47.702;9.826;2022-07-29T07:43:50;19.60;99.90
20141;DHT22;10231;47.702;9.826;2022-07-29T07:46:16;19.70;99.90
20141;DHT22;10231;47.702;9.826;2022-07-29T07:48:42;19.70;99.90
20141;DHT22;10231;47.702;9.826;2022-07-29T07:51:07;19.80;99.90
20141;DHT22;10231;47.702;9.826;2022-07-29T07:53:33;19.90;99.90
20141;DHT22;10231;47.702;9.826;2022-07-29T07:55:59;20.00;99.90
20141;DHT22;10231;47.702;9.826;2022-07-29T07:58:25;20.00;99.90
20141;DHT22;10231;47.702;9.826;2022-07-29T08:00:51;20.10;99.90
20141;DHT22;10231;47.702;9.826;2022-07-29T08:03:17;20.10;99.90
20141;DHT22;10231;47.702;9.826;2022-07-29T08:05:42;20.10;99.90
20141;DHT22;10231;47.702;9.826;2022-07-29T08:08:08;20.10;99.90
20141;DHT22;10231;47.702;9.826;2022-07-29T08:10:33;20.10;99.90
20141;DHT22;10231;47.702;9.826;2022-07-29T08:13:18;20.10;99.90
20141;DHT22;10231;47.702;9.826;2022-07-29T08:15:44;20.10;99.90
20141;DHT22;10231;47.702;9.826;2022-07-29T08:18:11;20.10;99.90
20141;DHT22;10231;47.702;9.826;2022-07-29T08:20:37;20.10;99.90
20141;DHT22;10231;47.702;9.826;2022-07-29T08:23:05;20.20;99.90
20141;DHT22;10231;47.702;9.826;2022-07-29T08:25:32;20.20;99.90
20141;DHT22;10231;47.702;9.826;2022-07-29T08:27:58;20.30;99.90
20141;DHT22;10231;47.702;9.826;2022-07-29T08:30:24;20.30;99.90
20141;DHT22;10231;47.702;9.826;2022-07-29T08:32:50;20.30;99.90
20141;DHT22;10231;47.702;9.826;2022-07-29T08:35:19;20.40;99.90
20141;DHT22;10231;47.702;9.826;2022-07-29T08:37:45;20.50;99.90
20141;DHT22;10231;47.702;9.826;2022-07-29T08:40:11;20.60;99.90
20141;DHT22;10231;47.702;9.826;2022-07-29T08:42:36;20.60;99.90
20141;DHT22;10231;47.702;9.826;2022-07-29T08:45:03;20.60;99.90
20141;DHT22;10231;47.702;9.826;2022-07-29T08:47:29;20.70;99.90
20141;DHT22;10231;47.702;9.826;2022-07-29T08:49:55;20.70;99.90
20141;DHT22;10231;47.702;9.826;2022-07-29T08:52:24;20.60;99.90
20141;DHT22;10231;47.702;9.826;2022-07-29T08:54:52;20.70;99.90
20141;DHT22;10231;47.702;9.826;2022-07-29T08:57:18;20.60;99.90
20141;DHT22;10231;47.702;9.826;2022-07-29T08:59:45;20.60;99.90
20141;DHT22;10231;47.702;9.826;2022-07-29T09:02:21;20.70;99.90
20141;DHT22;10231;47.702;9.826;2022-07-29T09:04:48;20.70;99.90
20141;DHT22;10231;47.702;9.826;2022-07-29T09:07:15;20.70;99.90
20141;DHT22;10231;47.702;9.826;2022-07-29T09:09:42;20.70;99.90
20141;DHT22;10231;47.702;9.826;2022-07-29T09:12:09;20.70;99.90
20141;DHT22;10231;47.702;9.826;2022-07-29T09:14:40;20.80;99.90
20141;DHT22;10231;47.702;9.826;2022-07-29T09:17:06;20.70;99.90
20141;DHT22;10231;47.702;9.826;2022-07-29T09:19:33;20.70;99.90
20141;DHT22;10231;47.702;9.826;2022-07-29T09:22:07;20.80;99.90
20141;DHT22;10231;47.702;9.826;2022-07-29T09:27:00;20.90;99.90
20141;DHT22;10231;47.702;9.826;2022-07-29T09:29:27;20.90;99.90
20141;DHT22;10231;47.702;9.826;2022-07-29T09:31:54;20.90;99.90
20141;DHT22;10231;47.702;9.826;2022-07-29T09:34:27;20.90;99.90
20141;DHT22;10231;47.702;9.826;2022-07-29T09:36:57;21.00;99.90
20141;DHT22;10231;47.702;9.826;2022-07-29T09:39:32;20.90;99.90
20141;DHT22;10231;47.702;9.826;2022-07-29T09:42:03;21.00;99.90
20141;DHT22;10231;47.702;9.826;2022-07-29T09:47:08;20.90;99.90
20141;DHT22;10231;47.702;9.826;2022-07-29T09:52:15;21.00;99.90
20141;DHT22;10231;47.702;9.826;2022-07-29T09:54:41;20.90;99.90
20141;DHT22;10231;47.702;9.826;2022-07-29T09:57:08;20.90;99.90
20141;DHT22;10231;47.702;9.826;2022-07-29T09:59:38;20.80;99.90
20141;DHT22;10231;47.702;9.826;2022-07-29T10:02:14;20.80;99.90
20141;DHT22;10231;47.702;9.826;2022-07-29T10:04:41;20.90;99.90
20141;DHT22;10231;47.702;9.826;2022-07-29T10:07:07;20.80;99.90
20141;DHT22;10231;47.702;9.826;2022-07-29T10:09:33;20.80;99.90
20141;DHT22;10231;47.702;9.826;2022-07-29T10:12:17;20.80;99.90
20141;DHT22;10231;47.702;9.826;2022-07-29T10:14:43;20.90;99.90
20141;DHT22;10231;47.702;9.826;2022-07-29T10:17:10;20.80;99.90
20141;DHT22;10231;47.702;9.826;2022-07-29T10:19:37;20.70;99.90
20141;DHT22;10231;47.702;9.826;2022-07-29T10:22:08;20.80;99.90
20141;DHT22;10231;47.702;9.826;2022-07-29T10:24:36;20.80;99.90
20141;DHT22;10231;47.702;9.826;2022-07-29T10:27:05;20.80;99.90
20141;DHT22;10231;47.702;9.826;2022-07-29T10:29:31;20.70;99.90
20141;DHT22;10231;47.702;9.826;2022-07-29T10:43:46;20.40;99.90
20141;DHT22;10231;47.702;9.826;2022-07-29T10:46:13;20.40;99.90
20141;DHT22;10231;47.702;9.826;2022-07-29T10:49:08;20.30;99.90
20141;DHT22;10231;47.702;9.826;2022-07-29T10:59:43;20.20;99.90
20141;DHT22;10231;47.702;9.826;2022-07-29T11:05:00;20.20;99.90
20141;DHT22;10231;47.702;9.826;2022-07-29T11:07:27;20.20;99.90
20141;DHT22;10231;47.702;9.826;2022-07-29T11:15:07;20.20;99.90
20141;DHT22;10231;47.702;9.826;2022-07-29T11:18:07;20.30;99.90
20141;DHT22;10231;47.702;9.826;2022-07-29T11:20:49;20.40;99.90
20141;DHT22;10231;47.702;9.826;2022-07-29T11:31:40;20.60;99.90
